sensor_id;sensor_type;location;lat;lon;timestamp;P1;durP1;ratioP1;P2;durP2;ratioP2
40729;SDS011;26418;50.070;8.436;2022-08-18T00:02:22;16.05;;;12.90;;
40729;SDS011;26418;50.070;8.436;2022-08-18T00:04:49;16.23;;;12.35;;
40729;SDS011;26418;50.070;8.436;2022-08-18T00:07:17;16.80;;;13.13;;
40729;SDS011;26418;50.070;8.436;2022-08-18T00:09:44;16.60;;;13.25;;
40729;SDS011;26418;50.070;8.436;2022-08-18T00:12:17;14.02;;;11.27;;
40729;SDS011;26418;50.070;8.436;2022-08-18T00:14:47;14.95;;;11.73;;
40729;SDS011;26418;50.070;8.436;2022-08-18T00:17:14;14.40;;;12.00;;
40729;SDS011;26418;50.070;8.436;2022-08-18T00:19:40;14.75;;;13.07;;
40729;SDS011;26418;50.070;8.436;2022-08-18T00:22:05;16.25;;;13.20;;
40729;SDS011;26418;50.070;8.436;2022-08-18T00:24:31;15.57;;;12.95;;
40729;SDS011;26418;50.070;8.436;2022-08-18T00:26:57;15.23;;;12.93;;
40729;SDS011;26418;50.070;8.436;2022-08-18T00:29:23;14.30;;;11.52;;
40729;SDS011;26418;50.070;8.436;2022-08-18T00:31:48;17.35;;;11.77;;
40729;SDS011;26418;50.070;8.436;2022-08-18T00:34:14;15.85;;;13.45;;
40729;SDS011;26418;50.070;8.436;2022-08-18T00:36:39;17.73;;;14.10;;
40729;SDS011;26418;50.070;8.436;2022-08-18T00:39:05;20.33;;;14.30;;
40729;SDS011;26418;50.070;8.436;2022-08-18T00:41:30;15.40;;;13.80;;
40729;SDS011;26418;50.070;8.436;2022-08-18T00:43:56;15.32;;;13.18;;
40729;SDS011;26418;50.070;8.436;2022-08-18T00:46:25;13.73;;;12.30;;
40729;SDS011;26418;50.070;8.436;2022-08-18T00:48:53;15.68;;;12.55;;
40729;SDS011;26418;50.070;8.436;2022-08-18T00:51:37;13.38;;;11.35;;
40729;SDS011;26418;50.070;8.436;2022-08-18T00:54:20;13.15;;;11.75;;
40729;SDS011;26418;50.070;8.436;2022-08-18T00:56:49;12.43;;;10.95;;
40729;SDS011;26418;50.070;8.436;2022-08-18T00:59:32;13.43;;;12.02;;
40729;SDS011;26418;50.070;8.436;2022-08-18T01:02:02;17.30;;;12.57;;
40729;SDS011;26418;50.070;8.436;2022-08-18T01:07:41;16.23;;;14.02;;
40729;SDS011;26418;50.070;8.436;2022-08-18T01:10:12;16.02;;;11.57;;
40729;SDS011;26418;50.070;8.436;2022-08-18T01:12:41;19.17;;;14.35;;
40729;SDS011;26418;50.070;8.436;2022-08-18T01:15:10;17.05;;;12.77;;
40729;SDS011;26418;50.070;8.436;2022-08-18T01:17:37;23.63;;;15.07;;
40729;SDS011;26418;50.070;8.436;2022-08-18T01:20:25;18.35;;;13.88;;
40729;SDS011;26418;50.070;8.436;2022-08-18T01:23:37;16.45;;;13.30;;
40729;SDS011;26418;50.070;8.436;2022-08-18T01:26:04;17.00;;;13.80;;
40729;SDS011;26418;50.070;8.436;2022-08-18T01:28:34;17.42;;;13.43;;
40729;SDS011;26418;50.070;8.436;2022-08-18T01:31:03;16.20;;;12.80;;
40729;SDS011;26418;50.070;8.436;2022-08-18T01:33:32;18.13;;;13.93;;
40729;SDS011;26418;50.070;8.436;2022-08-18T01:36:01;17.52;;;15.05;;
40729;SDS011;26418;50.070;8.436;2022-08-18T01:38:40;19.33;;;14.55;;
40729;SDS011;26418;50.070;8.436;2022-08-18T01:41:07;19.40;;;15.43;;
40729;SDS011;26418;50.070;8.436;2022-08-18T01:43:33;19.27;;;14.52;;
40729;SDS011;26418;50.070;8.436;2022-08-18T01:46:00;20.02;;;14.82;;
40729;SDS011;26418;50.070;8.436;2022-08-18T01:48:28;19.30;;;14.32;;
40729;SDS011;26418;50.070;8.436;2022-08-18T01:50:58;19.35;;;14.90;;
40729;SDS011;26418;50.070;8.436;2022-08-18T01:53:24;15.98;;;13.95;;
40729;SDS011;26418;50.070;8.436;2022-08-18T01:55:51;21.25;;;14.30;;
40729;SDS011;26418;50.070;8.436;2022-08-18T01:58:17;18.33;;;13.50;;
40729;SDS011;26418;50.070;8.436;2022-08-18T02:00:42;19.48;;;15.57;;
40729;SDS011;26418;50.070;8.436;2022-08-18T02:03:08;19.83;;;16.15;;
40729;SDS011;26418;50.070;8.436;2022-08-18T02:05:40;17.38;;;14.98;;
40729;SDS011;26418;50.070;8.436;2022-08-18T02:08:11;22.15;;;13.57;;
40729;SDS011;26418;50.070;8.436;2022-08-18T02:10:36;16.15;;;12.93;;
40729;SDS011;26418;50.070;8.436;2022-08-18T02:13:03;18.52;;;13.40;;
40729;SDS011;26418;50.070;8.436;2022-08-18T02:15:29;19.80;;;14.50;;
40729;SDS011;26418;50.070;8.436;2022-08-18T02:17:54;15.98;;;13.02;;
40729;SDS011;26418;50.070;8.436;2022-08-18T02:20:19;14.73;;;12.23;;
40729;SDS011;26418;50.070;8.436;2022-08-18T02:22:45;18.77;;;11.85;;
40729;SDS011;26418;50.070;8.436;2022-08-18T02:25:12;16.83;;;12.65;;
40729;SDS011;26418;50.070;8.436;2022-08-18T02:27:38;16.25;;;13.07;;
40729;SDS011;26418;50.070;8.436;2022-08-18T02:30:06;14.52;;;13.02;;
40729;SDS011;26418;50.070;8.436;2022-08-18T02:32:34;17.95;;;13.60;;
40729;SDS011;26418;50.070;8.436;2022-08-18T02:34:59;17.60;;;14.55;;
40729;SDS011;26418;50.070;8.436;2022-08-18T02:37:25;17.75;;;13.30;;
40729;SDS011;26418;50.070;8.436;2022-08-18T02:39:50;16.15;;;13.70;;
40729;SDS011;26418;50.070;8.436;2022-08-18T02:42:16;15.40;;;13.30;;
40729;SDS011;26418;50.070;8.436;2022-08-18T02:44:41;20.27;;;16.05;;
40729;SDS011;26418;50.070;8.436;2022-08-18T02:47:07;19.23;;;14.57;;
40729;SDS011;26418;50.070;8.436;2022-08-18T02:49:33;18.15;;;13.25;;
40729;SDS011;26418;50.070;8.436;2022-08-18T02:52:01;16.85;;;13.32;;
40729;SDS011;26418;50.070;8.436;2022-08-18T02:54:26;21.88;;;14.20;;
40729;SDS011;26418;50.070;8.436;2022-08-18T02:56:52;18.20;;;13.32;;
40729;SDS011;26418;50.070;8.436;2022-08-18T02:59:19;19.40;;;15.93;;
40729;SDS011;26418;50.070;8.436;2022-08-18T03:01:49;19.75;;;15.30;;
40729;SDS011;26418;50.070;8.436;2022-08-18T03:04:23;17.67;;;14.07;;
40729;SDS011;26418;50.070;8.436;2022-08-18T03:06:55;15.27;;;13.00;;
40729;SDS011;26418;50.070;8.436;2022-08-18T03:09:22;15.27;;;11.93;;
40729;SDS011;26418;50.070;8.436;2022-08-18T03:11:47;15.40;;;12.77;;
40729;SDS011;26418;50.070;8.436;2022-08-18T03:14:13;18.60;;;13.52;;
40729;SDS011;26418;50.070;8.436;2022-08-18T03:16:39;19.40;;;14.77;;
40729;SDS011;26418;50.070;8.436;2022-08-18T03:19:09;16.85;;;14.25;;
40729;SDS011;26418;50.070;8.436;2022-08-18T03:21:35;16.05;;;12.95;;
40729;SDS011;26418;50.070;8.436;2022-08-18T03:24:02;17.50;;;13.63;;
40729;SDS011;26418;50.070;8.436;2022-08-18T03:26:29;20.60;;;13.50;;
40729;SDS011;26418;50.070;8.436;2022-08-18T03:28:55;12.93;;;11.63;;
40729;SDS011;26418;50.070;8.436;2022-08-18T03:31:22;14.98;;;11.23;;
40729;SDS011;26418;50.070;8.436;2022-08-18T03:33:49;14.13;;;11.60;;
40729;SDS011;26418;50.070;8.436;2022-08-18T03:36:16;22.35;;;14.48;;
40729;SDS011;26418;50.070;8.436;2022-08-18T03:38:44;24.08;;;13.80;;
40729;SDS011;26418;50.070;8.436;2022-08-18T03:41:11;21.67;;;14.00;;
40729;SDS011;26418;50.070;8.436;2022-08-18T03:43:38;16.00;;;12.27;;
40729;SDS011;26418;50.070;8.436;2022-08-18T03:46:06;16.05;;;12.55;;
40729;SDS011;26418;50.070;8.436;2022-08-18T03:48:36;16.33;;;13.52;;
40729;SDS011;26418;50.070;8.436;2022-08-18T03:51:05;19.90;;;12.98;;
40729;SDS011;26418;50.070;8.436;2022-08-18T03:53:34;15.40;;;12.77;;
40729;SDS011;26418;50.070;8.436;2022-08-18T03:56:01;20.88;;;12.90;;
40729;SDS011;26418;50.070;8.436;2022-08-18T03:58:31;12.73;;;10.20;;
40729;SDS011;26418;50.070;8.436;2022-08-18T04:00:57;13.60;;;10.77;;
40729;SDS011;26418;50.070;8.436;2022-08-18T04:03:22;18.23;;;10.95;;
40729;SDS011;26418;50.070;8.436;2022-08-18T04:05:47;12.57;;;11.27;;
40729;SDS011;26418;50.070;8.436;2022-08-18T04:08:13;14.13;;;11.13;;
40729;SDS011;26418;50.070;8.436;2022-08-18T04:10:38;13.95;;;10.77;;
40729;SDS011;26418;50.070;8.436;2022-08-18T04:13:04;14.15;;;11.65;;
40729;SDS011;26418;50.070;8.436;2022-08-18T04:15:29;14.48;;;12.15;;
40729;SDS011;26418;50.070;8.436;2022-08-18T04:17:59;15.07;;;12.80;;
40729;SDS011;26418;50.070;8.436;2022-08-18T04:20:28;20.73;;;15.15;;
40729;SDS011;26418;50.070;8.436;2022-08-18T04:22:56;18.48;;;13.55;;
40729;SDS011;26418;50.070;8.436;2022-08-18T04:25:22;22.23;;;13.43;;
40729;SDS011;26418;50.070;8.436;2022-08-18T04:27:47;15.68;;;13.63;;
40729;SDS011;26418;50.070;8.436;2022-08-18T04:30:13;13.93;;;12.48;;
40729;SDS011;26418;50.070;8.436;2022-08-18T04:32:38;21.60;;;13.65;;
40729;SDS011;26418;50.070;8.436;2022-08-18T04:35:04;15.55;;;12.50;;
40729;SDS011;26418;50.070;8.436;2022-08-18T04:37:30;15.30;;;13.65;;
40729;SDS011;26418;50.070;8.436;2022-08-18T04:39:56;22.38;;;14.77;;
40729;SDS011;26418;50.070;8.436;2022-08-18T04:42:22;16.35;;;13.63;;
40729;SDS011;26418;50.070;8.436;2022-08-18T04:44:48;17.50;;;14.60;;
40729;SDS011;26418;50.070;8.436;2022-08-18T04:47:15;19.85;;;12.45;;
40729;SDS011;26418;50.070;8.436;2022-08-18T04:49:40;18.15;;;12.52;;
40729;SDS011;26418;50.070;8.436;2022-08-18T04:52:08;18.02;;;13.50;;
40729;SDS011;26418;50.070;8.436;2022-08-18T04:54:52;18.35;;;13.38;;
40729;SDS011;26418;50.070;8.436;2022-08-18T04:57:18;19.48;;;13.27;;
40729;SDS011;26418;50.070;8.436;2022-08-18T04:59:45;13.93;;;12.15;;
40729;SDS011;26418;50.070;8.436;2022-08-18T05:02:13;15.85;;;11.73;;
40729;SDS011;26418;50.070;8.436;2022-08-18T05:04:40;12.52;;;10.98;;
40729;SDS011;26418;50.070;8.436;2022-08-18T05:07:11;17.52;;;12.55;;
40729;SDS011;26418;50.070;8.436;2022-08-18T05:09:57;16.60;;;12.90;;
40729;SDS011;26418;50.070;8.436;2022-08-18T05:12:22;18.70;;;12.98;;
40729;SDS011;26418;50.070;8.436;2022-08-18T05:14:47;13.65;;;10.88;;
40729;SDS011;26418;50.070;8.436;2022-08-18T05:17:14;12.50;;;11.20;;
40729;SDS011;26418;50.070;8.436;2022-08-18T05:19:40;11.60;;;10.20;;
40729;SDS011;26418;50.070;8.436;2022-08-18T05:22:08;13.13;;;10.15;;
40729;SDS011;26418;50.070;8.436;2022-08-18T05:24:34;12.32;;;9.88;;
40729;SDS011;26418;50.070;8.436;2022-08-18T05:27:01;12.15;;;10.02;;
40729;SDS011;26418;50.070;8.436;2022-08-18T05:29:28;13.20;;;10.30;;
40729;SDS011;26418;50.070;8.436;2022-08-18T05:31:58;13.13;;;10.93;;
40729;SDS011;26418;50.070;8.436;2022-08-18T05:34:26;11.48;;;10.27;;
40729;SDS011;26418;50.070;8.436;2022-08-18T05:37:13;13.70;;;10.93;;
40729;SDS011;26418;50.070;8.436;2022-08-18T05:39:59;13.43;;;10.20;;
40729;SDS011;26418;50.070;8.436;2022-08-18T05:42:29;13.35;;;11.18;;
40729;SDS011;26418;50.070;8.436;2022-08-18T05:45:01;19.60;;;11.85;;
40729;SDS011;26418;50.070;8.436;2022-08-18T05:47:32;13.32;;;10.90;;
40729;SDS011;26418;50.070;8.436;2022-08-18T05:50:31;11.63;;;10.15;;
40729;SDS011;26418;50.070;8.436;2022-08-18T05:52:57;13.85;;;10.45;;
40729;SDS011;26418;50.070;8.436;2022-08-18T05:55:29;19.70;;;15.35;;
40729;SDS011;26418;50.070;8.436;2022-08-18T05:58:27;22.30;;;14.82;;
40729;SDS011;26418;50.070;8.436;2022-08-18T06:00:59;17.77;;;14.00;;
40729;SDS011;26418;50.070;8.436;2022-08-18T06:03:29;21.38;;;15.60;;
40729;SDS011;26418;50.070;8.436;2022-08-18T06:06:00;13.75;;;11.90;;
40729;SDS011;26418;50.070;8.436;2022-08-18T06:08:37;13.23;;;11.77;;
40729;SDS011;26418;50.070;8.436;2022-08-18T06:11:07;22.83;;;15.10;;
40729;SDS011;26418;50.070;8.436;2022-08-18T06:13:40;17.17;;;14.65;;
40729;SDS011;26418;50.070;8.436;2022-08-18T06:18:53;20.63;;;14.82;;
40729;SDS011;26418;50.070;8.436;2022-08-18T06:26:40;16.63;;;13.07;;
40729;SDS011;26418;50.070;8.436;2022-08-18T06:37:19;15.80;;;13.65;;
40729;SDS011;26418;50.070;8.436;2022-08-18T06:39:51;15.48;;;13.82;;
40729;SDS011;26418;50.070;8.436;2022-08-18T06:42:22;17.73;;;13.82;;
40729;SDS011;26418;50.070;8.436;2022-08-18T06:44:59;18.17;;;13.13;;
40729;SDS011;26418;50.070;8.436;2022-08-18T06:50:21;12.98;;;10.30;;
40729;SDS011;26418;50.070;8.436;2022-08-18T06:52:55;14.88;;;11.00;;
40729;SDS011;26418;50.070;8.436;2022-08-18T06:55:39;15.10;;;12.10;;
40729;SDS011;26418;50.070;8.436;2022-08-18T07:00:53;20.20;;;14.90;;
40729;SDS011;26418;50.070;8.436;2022-08-18T07:08:33;17.95;;;12.90;;
40729;SDS011;26418;50.070;8.436;2022-08-18T07:13:38;13.82;;;11.32;;
40729;SDS011;26418;50.070;8.436;2022-08-18T07:18:40;13.00;;;10.73;;
40729;SDS011;26418;50.070;8.436;2022-08-18T07:21:05;11.82;;;10.05;;
40729;SDS011;26418;50.070;8.436;2022-08-18T07:23:35;12.02;;;10.15;;
40729;SDS011;26418;50.070;8.436;2022-08-18T07:26:05;12.35;;;10.20;;
40729;SDS011;26418;50.070;8.436;2022-08-18T07:33:42;15.18;;;11.65;;
40729;SDS011;26418;50.070;8.436;2022-08-18T07:36:15;14.75;;;12.15;;
40729;SDS011;26418;50.070;8.436;2022-08-18T07:38:44;16.38;;;12.35;;
40729;SDS011;26418;50.070;8.436;2022-08-18T07:41:20;14.10;;;11.23;;
40729;SDS011;26418;50.070;8.436;2022-08-18T07:44:12;17.33;;;14.85;;
40729;SDS011;26418;50.070;8.436;2022-08-18T07:49:21;21.73;;;13.43;;
40729;SDS011;26418;50.070;8.436;2022-08-18T07:54:20;13.60;;;11.88;;
40729;SDS011;26418;50.070;8.436;2022-08-18T08:05:00;19.33;;;13.88;;
40729;SDS011;26418;50.070;8.436;2022-08-18T08:07:38;15.88;;;13.10;;
40729;SDS011;26418;50.070;8.436;2022-08-18T08:13:04;20.58;;;13.43;;
40729;SDS011;26418;50.070;8.436;2022-08-18T08:15:53;14.18;;;12.55;;
40729;SDS011;26418;50.070;8.436;2022-08-18T08:21:09;16.25;;;11.85;;
40729;SDS011;26418;50.070;8.436;2022-08-18T08:23:47;16.92;;;13.13;;
40729;SDS011;26418;50.070;8.436;2022-08-18T08:29:28;17.73;;;13.82;;
40729;SDS011;26418;50.070;8.436;2022-08-18T08:32:04;17.42;;;13.85;;
40729;SDS011;26418;50.070;8.436;2022-08-18T08:38:02;18.52;;;14.07;;
40729;SDS011;26418;50.070;8.436;2022-08-18T08:40:15;18.05;;;14.10;;
40729;SDS011;26418;50.070;8.436;2022-08-18T08:45:21;29.90;;;16.65;;
40729;SDS011;26418;50.070;8.436;2022-08-18T08:50:46;28.73;;;18.02;;
40729;SDS011;26418;50.070;8.436;2022-08-18T08:55:54;23.05;;;15.73;;
40729;SDS011;26418;50.070;8.436;2022-08-18T08:58:53;23.83;;;14.80;;
40729;SDS011;26418;50.070;8.436;2022-08-18T09:01:44;20.20;;;13.77;;
40729;SDS011;26418;50.070;8.436;2022-08-18T09:07:38;20.55;;;13.30;;
40729;SDS011;26418;50.070;8.436;2022-08-18T09:18:45;14.73;;;12.75;;
40729;SDS011;26418;50.070;8.436;2022-08-18T09:24:25;18.05;;;14.95;;
40729;SDS011;26418;50.070;8.436;2022-08-18T09:32:37;19.15;;;16.25;;
40729;SDS011;26418;50.070;8.436;2022-08-18T09:38:16;17.33;;;14.88;;
40729;SDS011;26418;50.070;8.436;2022-08-18T09:41:08;17.70;;;14.13;;
40729;SDS011;26418;50.070;8.436;2022-08-18T09:52:00;17.42;;;15.43;;
40729;SDS011;26418;50.070;8.436;2022-08-18T09:54:52;16.73;;;14.90;;
40729;SDS011;26418;50.070;8.436;2022-08-18T09:57:22;18.75;;;14.25;;
40729;SDS011;26418;50.070;8.436;2022-08-18T10:04:50;17.80;;;15.48;;
40729;SDS011;26418;50.070;8.436;2022-08-18T10:07:51;17.58;;;15.73;;
40729;SDS011;26418;50.070;8.436;2022-08-18T10:29:04;18.77;;;14.82;;
40729;SDS011;26418;50.070;8.436;2022-08-18T10:37:10;22.17;;;17.95;;
40729;SDS011;26418;50.070;8.436;2022-08-18T10:42:04;18.27;;;14.75;;
40729;SDS011;26418;50.070;8.436;2022-08-18T10:44:44;13.82;;;12.18;;
40729;SDS011;26418;50.070;8.436;2022-08-18T10:47:45;16.00;;;14.10;;
40729;SDS011;26418;50.070;8.436;2022-08-18T10:50:07;23.98;;;18.33;;
40729;SDS011;26418;50.070;8.436;2022-08-18T10:55:49;21.15;;;16.80;;
40729;SDS011;26418;50.070;8.436;2022-08-18T11:01:10;23.77;;;18.13;;
40729;SDS011;26418;50.070;8.436;2022-08-18T11:06:35;25.05;;;16.95;;
40729;SDS011;26418;50.070;8.436;2022-08-18T11:09:03;22.88;;;17.98;;
40729;SDS011;26418;50.070;8.436;2022-08-18T11:11:37;18.20;;;16.27;;
40729;SDS011;26418;50.070;8.436;2022-08-18T11:19:54;22.40;;;15.85;;
40729;SDS011;26418;50.070;8.436;2022-08-18T11:24:49;20.50;;;16.27;;
40729;SDS011;26418;50.070;8.436;2022-08-18T11:27:17;23.88;;;16.00;;
40729;SDS011;26418;50.070;8.436;2022-08-18T11:39:51;25.20;;;19.65;;
40729;SDS011;26418;50.070;8.436;2022-08-18T11:42:25;20.55;;;17.30;;
40729;SDS011;26418;50.070;8.436;2022-08-18T11:45:04;17.45;;;15.60;;
40729;SDS011;26418;50.070;8.436;2022-08-18T11:47:57;28.35;;;17.52;;
40729;SDS011;26418;50.070;8.436;2022-08-18T11:50:46;16.00;;;14.18;;
40729;SDS011;26418;50.070;8.436;2022-08-18T11:53:49;15.95;;;13.30;;
40729;SDS011;26418;50.070;8.436;2022-08-18T11:56:36;15.90;;;14.23;;
40729;SDS011;26418;50.070;8.436;2022-08-18T11:59:03;21.60;;;17.02;;
40729;SDS011;26418;50.070;8.436;2022-08-18T12:04:08;17.50;;;12.68;;
40729;SDS011;26418;50.070;8.436;2022-08-18T12:09:15;15.52;;;11.73;;
40729;SDS011;26418;50.070;8.436;2022-08-18T12:11:54;17.30;;;11.40;;
40729;SDS011;26418;50.070;8.436;2022-08-18T12:14:23;14.25;;;10.32;;
40729;SDS011;26418;50.070;8.436;2022-08-18T12:16:50;13.45;;;10.63;;
40729;SDS011;26418;50.070;8.436;2022-08-18T12:19:18;14.35;;;11.32;;
40729;SDS011;26418;50.070;8.436;2022-08-18T12:21:49;11.98;;;10.48;;
40729;SDS011;26418;50.070;8.436;2022-08-18T12:26:51;12.40;;;10.80;;
40729;SDS011;26418;50.070;8.436;2022-08-18T12:29:17;15.25;;;12.13;;
40729;SDS011;26418;50.070;8.436;2022-08-18T12:31:44;13.80;;;10.73;;
40729;SDS011;26418;50.070;8.436;2022-08-18T12:34:10;19.25;;;9.57;;
40729;SDS011;26418;50.070;8.436;2022-08-18T12:36:36;12.35;;;10.57;;
40729;SDS011;26418;50.070;8.436;2022-08-18T12:39:02;11.40;;;10.25;;
40729;SDS011;26418;50.070;8.436;2022-08-18T12:46:38;14.27;;;9.75;;
40729;SDS011;26418;50.070;8.436;2022-08-18T12:49:04;14.27;;;9.10;;
40729;SDS011;26418;50.070;8.436;2022-08-18T12:54:02;10.93;;;9.43;;
40729;SDS011;26418;50.070;8.436;2022-08-18T12:56:29;11.98;;;9.43;;
40729;SDS011;26418;50.070;8.436;2022-08-18T12:58:59;10.50;;;9.40;;
40729;SDS011;26418;50.070;8.436;2022-08-18T13:01:29;13.65;;;10.30;;
40729;SDS011;26418;50.070;8.436;2022-08-18T13:03:55;10.05;;;9.15;;
40729;SDS011;26418;50.070;8.436;2022-08-18T13:06:23;11.95;;;8.75;;
40729;SDS011;26418;50.070;8.436;2022-08-18T13:08:51;12.77;;;8.55;;
40729;SDS011;26418;50.070;8.436;2022-08-18T13:11:19;9.05;;;8.10;;
40729;SDS011;26418;50.070;8.436;2022-08-18T13:13:46;7.88;;;7.18;;
40729;SDS011;26418;50.070;8.436;2022-08-18T13:16:15;9.27;;;8.13;;
40729;SDS011;26418;50.070;8.436;2022-08-18T13:18:42;8.52;;;7.05;;
40729;SDS011;26418;50.070;8.436;2022-08-18T13:21:09;7.28;;;6.57;;
40729;SDS011;26418;50.070;8.436;2022-08-18T13:23:37;10.00;;;6.90;;
40729;SDS011;26418;50.070;8.436;2022-08-18T13:26:04;7.53;;;6.57;;
40729;SDS011;26418;50.070;8.436;2022-08-18T13:28:32;8.00;;;6.50;;
40729;SDS011;26418;50.070;8.436;2022-08-18T13:30:59;9.27;;;7.45;;
40729;SDS011;26418;50.070;8.436;2022-08-18T13:33:26;7.90;;;7.20;;
40729;SDS011;26418;50.070;8.436;2022-08-18T13:35:52;9.25;;;8.35;;
40729;SDS011;26418;50.070;8.436;2022-08-18T13:38:18;11.30;;;7.78;;
40729;SDS011;26418;50.070;8.436;2022-08-18T13:40:47;8.27;;;7.13;;
40729;SDS011;26418;50.070;8.436;2022-08-18T13:43:17;8.93;;;7.47;;
40729;SDS011;26418;50.070;8.436;2022-08-18T13:45:45;7.95;;;7.10;;
40729;SDS011;26418;50.070;8.436;2022-08-18T13:48:14;8.48;;;7.60;;
40729;SDS011;26418;50.070;8.436;2022-08-18T13:50:41;8.57;;;7.72;;
40729;SDS011;26418;50.070;8.436;2022-08-18T13:53:15;8.27;;;6.97;;
40729;SDS011;26418;50.070;8.436;2022-08-18T13:55:43;8.10;;;7.07;;
40729;SDS011;26418;50.070;8.436;2022-08-18T13:58:10;9.68;;;7.40;;
40729;SDS011;26418;50.070;8.436;2022-08-18T14:00:36;8.85;;;7.55;;
40729;SDS011;26418;50.070;8.436;2022-08-18T14:03:03;8.95;;;7.38;;
40729;SDS011;26418;50.070;8.436;2022-08-18T14:05:30;10.57;;;9.48;;
40729;SDS011;26418;50.070;8.436;2022-08-18T14:07:55;10.32;;;8.35;;
40729;SDS011;26418;50.070;8.436;2022-08-18T14:10:21;12.18;;;8.75;;
40729;SDS011;26418;50.070;8.436;2022-08-18T14:12:46;12.50;;;8.40;;
40729;SDS011;26418;50.070;8.436;2022-08-18T14:15:13;11.70;;;8.30;;
40729;SDS011;26418;50.070;8.436;2022-08-18T14:17:39;12.50;;;9.75;;
40729;SDS011;26418;50.070;8.436;2022-08-18T14:20:06;13.45;;;8.95;;
40729;SDS011;26418;50.070;8.436;2022-08-18T14:22:52;10.05;;;8.57;;
40729;SDS011;26418;50.070;8.436;2022-08-18T14:25:38;9.38;;;8.30;;
40729;SDS011;26418;50.070;8.436;2022-08-18T14:28:22;11.75;;;8.40;;
40729;SDS011;26418;50.070;8.436;2022-08-18T14:30:48;12.95;;;7.55;;
40729;SDS011;26418;50.070;8.436;2022-08-18T14:33:16;10.48;;;9.38;;
40729;SDS011;26418;50.070;8.436;2022-08-18T14:35:45;11.88;;;9.80;;
40729;SDS011;26418;50.070;8.436;2022-08-18T14:38:12;10.80;;;8.95;;
40729;SDS011;26418;50.070;8.436;2022-08-18T14:40:39;10.45;;;8.40;;
40729;SDS011;26418;50.070;8.436;2022-08-18T14:43:07;10.00;;;8.90;;
40729;SDS011;26418;50.070;8.436;2022-08-18T14:45:33;11.27;;;9.45;;
40729;SDS011;26418;50.070;8.436;2022-08-18T14:47:59;10.23;;;8.98;;
40729;SDS011;26418;50.070;8.436;2022-08-18T14:50:26;12.07;;;9.07;;
40729;SDS011;26418;50.070;8.436;2022-08-18T14:52:52;17.90;;;9.18;;
40729;SDS011;26418;50.070;8.436;2022-08-18T14:55:18;13.25;;;10.65;;
40729;SDS011;26418;50.070;8.436;2022-08-18T14:57:45;15.25;;;10.73;;
40729;SDS011;26418;50.070;8.436;2022-08-18T15:00:13;15.55;;;11.30;;
40729;SDS011;26418;50.070;8.436;2022-08-18T15:02:41;12.50;;;10.65;;
40729;SDS011;26418;50.070;8.436;2022-08-18T15:05:09;13.70;;;12.32;;
40729;SDS011;26418;50.070;8.436;2022-08-18T15:07:36;16.15;;;13.20;;
40729;SDS011;26418;50.070;8.436;2022-08-18T15:10:03;18.00;;;14.05;;
40729;SDS011;26418;50.070;8.436;2022-08-18T15:12:30;20.33;;;15.50;;
40729;SDS011;26418;50.070;8.436;2022-08-18T15:14:56;18.67;;;15.52;;
40729;SDS011;26418;50.070;8.436;2022-08-18T15:17:24;18.50;;;16.52;;
40729;SDS011;26418;50.070;8.436;2022-08-18T15:19:51;24.70;;;17.15;;
40729;SDS011;26418;50.070;8.436;2022-08-18T15:22:17;19.52;;;15.50;;
40729;SDS011;26418;50.070;8.436;2022-08-18T15:25:02;23.23;;;17.33;;
40729;SDS011;26418;50.070;8.436;2022-08-18T15:27:46;19.95;;;16.38;;
40729;SDS011;26418;50.070;8.436;2022-08-18T15:30:13;19.00;;;15.85;;
40729;SDS011;26418;50.070;8.436;2022-08-18T15:32:44;21.38;;;16.92;;
40729;SDS011;26418;50.070;8.436;2022-08-18T15:35:11;21.42;;;15.43;;
40729;SDS011;26418;50.070;8.436;2022-08-18T15:37:40;20.83;;;16.23;;
40729;SDS011;26418;50.070;8.436;2022-08-18T15:40:14;17.38;;;15.50;;
40729;SDS011;26418;50.070;8.436;2022-08-18T15:42:43;24.40;;;16.00;;
40729;SDS011;26418;50.070;8.436;2022-08-18T15:45:10;16.55;;;14.82;;
40729;SDS011;26418;50.070;8.436;2022-08-18T15:47:39;21.73;;;15.38;;
40729;SDS011;26418;50.070;8.436;2022-08-18T15:50:06;20.27;;;16.80;;
40729;SDS011;26418;50.070;8.436;2022-08-18T15:52:32;18.38;;;15.73;;
40729;SDS011;26418;50.070;8.436;2022-08-18T15:55:01;18.65;;;15.50;;
40729;SDS011;26418;50.070;8.436;2022-08-18T15:57:26;20.65;;;16.70;;
40729;SDS011;26418;50.070;8.436;2022-08-18T15:59:54;22.65;;;17.90;;
40729;SDS011;26418;50.070;8.436;2022-08-18T16:02:20;19.33;;;15.70;;
40729;SDS011;26418;50.070;8.436;2022-08-18T16:04:47;21.30;;;16.55;;
40729;SDS011;26418;50.070;8.436;2022-08-18T16:07:12;21.95;;;16.23;;
40729;SDS011;26418;50.070;8.436;2022-08-18T16:09:40;19.70;;;17.27;;
40729;SDS011;26418;50.070;8.436;2022-08-18T16:12:07;23.90;;;16.08;;
40729;SDS011;26418;50.070;8.436;2022-08-18T16:14:38;19.77;;;15.98;;
40729;SDS011;26418;50.070;8.436;2022-08-18T16:17:04;19.85;;;16.42;;
40729;SDS011;26418;50.070;8.436;2022-08-18T16:19:30;23.25;;;16.67;;
40729;SDS011;26418;50.070;8.436;2022-08-18T16:21:55;22.88;;;16.92;;
40729;SDS011;26418;50.070;8.436;2022-08-18T16:24:21;24.23;;;17.40;;
40729;SDS011;26418;50.070;8.436;2022-08-18T16:26:47;23.52;;;18.60;;
40729;SDS011;26418;50.070;8.436;2022-08-18T16:29:13;23.45;;;16.88;;
40729;SDS011;26418;50.070;8.436;2022-08-18T16:31:39;23.63;;;17.67;;
40729;SDS011;26418;50.070;8.436;2022-08-18T16:34:05;23.77;;;18.27;;
40729;SDS011;26418;50.070;8.436;2022-08-18T16:36:31;22.70;;;16.83;;
40729;SDS011;26418;50.070;8.436;2022-08-18T16:38:56;25.08;;;17.55;;
40729;SDS011;26418;50.070;8.436;2022-08-18T16:41:22;22.63;;;17.90;;
40729;SDS011;26418;50.070;8.436;2022-08-18T16:43:47;25.25;;;18.60;;
40729;SDS011;26418;50.070;8.436;2022-08-18T16:46:15;22.85;;;19.05;;
40729;SDS011;26418;50.070;8.436;2022-08-18T16:48:43;25.30;;;18.10;;
40729;SDS011;26418;50.070;8.436;2022-08-18T16:51:16;31.10;;;20.80;;
40729;SDS011;26418;50.070;8.436;2022-08-18T16:53:43;24.38;;;19.58;;
40729;SDS011;26418;50.070;8.436;2022-08-18T16:56:16;26.40;;;19.38;;
40729;SDS011;26418;50.070;8.436;2022-08-18T16:58:47;23.35;;;18.33;;
40729;SDS011;26418;50.070;8.436;2022-08-18T17:01:31;32.45;;;19.85;;
40729;SDS011;26418;50.070;8.436;2022-08-18T17:04:17;20.65;;;17.95;;
40729;SDS011;26418;50.070;8.436;2022-08-18T17:06:46;28.33;;;18.88;;
40729;SDS011;26418;50.070;8.436;2022-08-18T17:09:13;21.77;;;18.88;;
40729;SDS011;26418;50.070;8.436;2022-08-18T17:11:39;28.00;;;19.27;;
40729;SDS011;26418;50.070;8.436;2022-08-18T17:14:05;24.95;;;19.50;;
40729;SDS011;26418;50.070;8.436;2022-08-18T17:16:32;27.40;;;19.95;;
40729;SDS011;26418;50.070;8.436;2022-08-18T17:19:00;32.45;;;21.23;;
40729;SDS011;26418;50.070;8.436;2022-08-18T17:21:27;22.27;;;17.75;;
40729;SDS011;26418;50.070;8.436;2022-08-18T17:23:55;25.48;;;18.15;;
40729;SDS011;26418;50.070;8.436;2022-08-18T17:32:03;22.25;;;17.48;;
40729;SDS011;26418;50.070;8.436;2022-08-18T17:34:37;25.17;;;18.13;;
40729;SDS011;26418;50.070;8.436;2022-08-18T17:37:08;25.15;;;16.98;;
40729;SDS011;26418;50.070;8.436;2022-08-18T17:39:37;21.98;;;17.00;;
40729;SDS011;26418;50.070;8.436;2022-08-18T17:42:08;24.67;;;18.10;;
40729;SDS011;26418;50.070;8.436;2022-08-18T17:44:57;22.38;;;16.20;;
40729;SDS011;26418;50.070;8.436;2022-08-18T17:47:30;25.92;;;16.80;;